Terminal Aerodrome Forecast
Issued by NWS Wilmington, OH

Home | Current Version | Previous Version | Text Only | Print | Product List | Glossary On
Versions: 1 2 3 4 5 6 7 8 9 10 11 12 13 14 15 16 17 18 19 20 21 22
000
FTUS41 KILN 291751
TAFCVG
TAF
KCVG 291751Z 2918/3024 09010KT P6SM BKN020
     FM292100 07007KT P6SM SCT025
     FM300000 08006KT P6SM SCT250
     FM300900 10008KT P6SM BKN025
     FM301200 11008KT P6SM BKN035
     FM301500 16012G20KT P6SM BKN040
     FM301800 20014G24KT P6SM BKN040=

USA.gov is the U.S. government's official web portal to all federal, state and local government web resources and services.